Shonai Airport Shonai JP
ICAO: RJSY
IATA:
Category: Medium
Scheduled Services:

Elevation: 86 ft
TransAlt. 0 ft.

Airport Communications:
RDO:118.8

RJSY Zoom In..

If you have problems with the map follow the link
https://www.worldairports.se/pages/airport.php?
ICAO=RJSY

Runways:

(A) RW 09 length 6562 ft width 148 ft
ILS 110.90 / hdg 88

(B) RW 27 length 6562 ft width 148 ft
LOC 111.50 / hdg 268

Location; RJSY
Day. 18 / Time. 05.00 Zulu
* QNH: 1010
* Temperature: 21° c. 69.8°f.
* Wind from: 310° Speed 07 kn.
Dewpoint: 15° c.
Visibility: 10 km or more.
Clouds: Few 3000 ft.
Clouds: Broken 7000 ft.

RJSY 180500Z 31007KT 280V360 9999 FEW030 BKN070 21/15 Q1010


Wind From 310°
Speed 07 kn.

 
 
jpsmedia.com for Web Design worldairports.se 2019   terms of use